Time;durP1;ratioP1;P1;durP2;ratioP2;P2;SDS_P1;SDS_P2;PMS_P1;PMS_P2;Temp;Humidity;BMP_temperature;BMP_pressure;BME280_temperature;BME280_humidity;BME280_pressure;Samples;Min_cycle;Max_cycle;Signal;HPM_P1;HPM_P2
2021/08/15 00:00:40;;;;;;;7.53;4.80;;;19.10;78.10;;;;;;2610611;54;20312;-76
2021/08/15 00:03:06;;;;;;;6.32;4.10;;;19.10;78.20;;;;;;2610599;54;20030;-76
2021/08/15 00:05:32;;;;;;;6.70;4.40;;;19.10;78.00;;;;;;2609492;54;21004;-76
2021/08/15 00:07:58;;;;;;;7.28;4.38;;;19.00;78.10;;;;;;2609218;54;20038;-76
2021/08/15 00:10:24;;;;;;;6.18;4.22;;;19.00;78.30;;;;;;2610747;54;20054;-76
2021/08/15 00:12:49;;;;;;;6.63;4.20;;;18.90;78.70;;;;;;2610211;54;20041;-76
2021/08/15 00:15:15;;;;;;;6.15;4.20;;;18.90;78.90;;;;;;2610661;54;20030;-75
2021/08/15 00:17:42;;;;;;;8.68;4.13;;;18.80;79.20;;;;;;2609947;54;20059;-76
2021/08/15 00:20:10;;;;;;;5.88;4.13;;;18.70;79.80;;;;;;2610243;54;20054;-76
2021/08/15 00:22:40;;;;;;;6.40;3.75;;;18.70;79.90;;;;;;2609368;47;20039;-76
2021/08/15 00:25:08;;;;;;;7.25;4.13;;;18.70;80.10;;;;;;2610345;54;20035;-76
2021/08/15 00:27:34;;;;;;;6.60;4.15;;;18.60;80.10;;;;;;2610119;54;20043;-76
2021/08/15 00:30:00;;;;;;;9.48;4.57;;;18.60;80.10;;;;;;2609266;47;20034;-76
2021/08/15 00:32:25;;;;;;;8.48;4.70;;;18.60;80.20;;;;;;2610546;54;20050;-76
2021/08/15 00:34:51;;;;;;;8.77;4.28;;;18.50;80.10;;;;;;2610032;54;20034;-76
2021/08/15 00:37:17;;;;;;;5.72;3.20;;;18.50;80.10;;;;;;2609347;54;20081;-76
2021/08/15 00:39:42;;;;;;;5.45;4.13;;;18.40;80.30;;;;;;2610220;54;20038;-76
2021/08/15 00:42:09;;;;;;;7.47;3.92;;;18.40;80.60;;;;;;2609072;47;20060;-76
2021/08/15 00:44:35;;;;;;;6.43;3.55;;;18.40;80.90;;;;;;2610660;54;20099;-76
2021/08/15 00:47:00;;;;;;;6.68;3.92;;;18.30;80.60;;;;;;2609489;54;20042;-76
2021/08/15 00:49:26;;;;;;;4.38;3.40;;;18.30;81.00;;;;;;2609731;54;20886;-76
2021/08/15 00:51:52;;;;;;;7.10;3.75;;;18.30;81.10;;;;;;2609687;54;20088;-76
2021/08/15 00:54:19;;;;;;;8.57;3.55;;;18.20;81.00;;;;;;2609050;54;20042;-76
2021/08/15 00:56:54;;;;;;;7.45;3.83;;;18.20;81.10;;;;;;2609694;54;20048;-76
2021/08/15 00:59:21;;;;;;;8.40;3.80;;;18.10;81.50;;;;;;2608351;47;20038;-76
2021/08/15 01:01:51;;;;;;;7.97;3.60;;;18.10;81.40;;;;;;2609974;54;20049;-76
2021/08/15 01:04:17;;;;;;;6.15;4.00;;;18.10;81.60;;;;;;2609916;39;20838;-76
2021/08/15 01:06:43;;;;;;;6.10;3.20;;;18.00;81.50;;;;;;2609566;54;20042;-76
2021/08/15 01:09:09;;;;;;;11.27;3.90;;;18.10;81.60;;;;;;2609357;54;21151;-76
2021/08/15 01:11:35;;;;;;;5.55;3.58;;;18.00;81.70;;;;;;2608628;54;20034;-77
2021/08/15 01:14:05;;;;;;;7.22;3.58;;;18.00;81.90;;;;;;2609444;54;20057;-77
2021/08/15 01:16:32;;;;;;;6.80;3.65;;;18.00;81.80;;;;;;2609244;54;20049;-76
2021/08/15 01:18:58;;;;;;;8.07;3.58;;;18.00;81.80;;;;;;2609129;54;20042;-76
2021/08/15 01:21:23;;;;;;;8.60;4.20;;;17.90;81.60;;;;;;2608925;54;20054;-76
2021/08/15 01:23:49;;;;;;;6.93;3.70;;;18.00;81.40;;;;;;2609480;54;20065;-76
2021/08/15 01:26:19;;;;;;;6.65;3.88;;;17.90;81.30;;;;;;2609264;54;20046;-76
2021/08/15 01:28:45;;;;;;;9.70;4.20;;;17.80;81.10;;;;;;2609463;54;20035;-77
2021/08/15 01:31:12;;;;;;;7.95;4.15;;;17.80;81.20;;;;;;2609767;54;20083;-76
2021/08/15 01:33:39;;;;;;;9.35;3.90;;;17.70;81.90;;;;;;2609562;54;20038;-76
2021/08/15 01:36:06;;;;;;;7.28;3.30;;;17.60;82.20;;;;;;2609950;54;20038;-76
2021/08/15 01:38:35;;;;;;;7.50;3.85;;;17.60;83.00;;;;;;2610601;39;20730;-77
2021/08/15 01:41:02;;;;;;;5.95;3.72;;;17.50;83.40;;;;;;2609938;54;20035;-75
2021/08/15 01:43:28;;;;;;;7.05;3.70;;;17.50;83.50;;;;;;2609623;54;20030;-76
2021/08/15 01:45:54;;;;;;;7.07;4.13;;;17.50;83.90;;;;;;2609138;47;20030;-75
2021/08/15 01:48:21;;;;;;;11.02;3.78;;;17.50;84.10;;;;;;2609546;54;20058;-76
2021/08/15 01:50:48;;;;;;;6.43;3.92;;;17.50;84.20;;;;;;2609596;54;20034;-76
2021/08/15 01:53:17;;;;;;;5.10;3.60;;;17.50;84.50;;;;;;2609939;54;21014;-76
2021/08/15 01:55:43;;;;;;;8.48;4.38;;;17.60;84.40;;;;;;2610048;54;20059;-76
2021/08/15 01:58:10;;;;;;;7.65;4.07;;;17.60;84.20;;;;;;2608356;54;20042;-75
2021/08/15 02:00:42;;;;;;;12.85;4.35;;;17.60;83.80;;;;;;2609522;54;20569;-76
2021/08/15 02:03:09;;;;;;;7.10;3.58;;;17.60;83.90;;;;;;2610201;54;21065;-76
2021/08/15 02:05:35;;;;;;;5.82;3.83;;;17.60;83.70;;;;;;2610649;54;20034;-76
2021/08/15 02:08:01;;;;;;;6.00;3.30;;;17.60;83.50;;;;;;2609722;39;20574;-76
2021/08/15 02:10:29;;;;;;;5.75;3.35;;;17.60;83.60;;;;;;2610550;54;20030;-76
2021/08/15 02:12:56;;;;;;;7.05;3.78;;;17.60;83.60;;;;;;2609725;54;20037;-76
2021/08/15 02:15:22;;;;;;;5.15;3.42;;;17.60;83.40;;;;;;2610524;54;20030;-76
2021/08/15 02:17:48;;;;;;;6.38;4.03;;;17.60;83.00;;;;;;2610171;54;20075;-75
2021/08/15 02:20:16;;;;;;;7.47;3.80;;;17.60;83.00;;;;;;2609485;54;20043;-75
2021/08/15 02:22:42;;;;;;;6.97;3.90;;;17.50;83.80;;;;;;2610375;54;20064;-76
2021/08/15 02:25:10;;;;;;;6.15;4.18;;;17.50;83.80;;;;;;2610146;54;20039;-76
2021/08/15 02:27:37;;;;;;;8.40;4.00;;;17.50;83.40;;;;;;2609229;54;20046;-76
2021/08/15 02:30:04;;;;;;;7.00;3.90;;;17.40;82.50;;;;;;2610294;54;20042;-76
2021/08/15 02:32:30;;;;;;;10.07;4.40;;;17.30;82.50;;;;;;2609827;54;20094;-76
2021/08/15 02:34:56;;;;;;;7.88;4.00;;;17.20;82.90;;;;;;2609917;54;20094;-76
2021/08/15 02:37:23;;;;;;;8.60;4.20;;;17.10;83.30;;;;;;2609339;54;20042;-76
2021/08/15 02:39:51;;;;;;;7.40;4.35;;;17.00;83.70;;;;;;2608503;47;20042;-76
2021/08/15 02:42:17;;;;;;;6.55;3.92;;;17.00;84.40;;;;;;2608474;47;20073;-75
2021/08/15 02:44:43;;;;;;;7.40;4.13;;;17.00;85.00;;;;;;2609811;39;20533;-75
2021/08/15 02:47:10;;;;;;;6.95;4.35;;;16.90;85.60;;;;;;2609176;54;20043;-76
2021/08/15 02:49:37;;;;;;;7.40;4.53;;;16.90;86.00;;;;;;2609222;54;20034;-77
2021/08/15 02:52:03;;;;;;;9.35;4.18;;;16.90;85.90;;;;;;2609178;54;20034;-75
2021/08/15 02:54:29;;;;;;;8.18;3.97;;;16.90;86.10;;;;;;2609521;54;20042;-76
2021/08/15 02:56:54;;;;;;;6.05;3.78;;;16.90;86.60;;;;;;2609748;54;20035;-75
2021/08/15 02:59:20;;;;;;;8.55;4.10;;;16.90;86.50;;;;;;2609418;54;20038;-76
2021/08/15 03:01:46;;;;;;;7.07;4.07;;;16.90;86.40;;;;;;2609131;54;20049;-76
2021/08/15 03:04:11;;;;;;;5.82;3.92;;;17.00;86.20;;;;;;2609269;54;20038;-76
2021/08/15 03:06:39;;;;;;;8.27;4.18;;;17.00;86.20;;;;;;2610283;54;20031;-76
2021/08/15 03:09:05;;;;;;;10.45;3.97;;;17.00;86.00;;;;;;2609860;47;20069;-76
2021/08/15 03:11:31;;;;;;;8.38;4.18;;;16.90;85.20;;;;;;2610670;54;20038;-76
2021/08/15 03:13:56;;;;;;;6.53;4.20;;;16.90;85.60;;;;;;2610628;54;20138;-76
2021/08/15 03:16:22;;;;;;;7.18;4.15;;;16.90;86.20;;;;;;2610485;54;20042;-76
2021/08/15 03:18:47;;;;;;;7.45;3.95;;;16.80;86.80;;;;;;2609942;54;20046;-76
2021/08/15 03:21:13;;;;;;;9.75;4.05;;;16.80;87.10;;;;;;2609952;54;20043;-76
2021/08/15 03:23:39;;;;;;;6.32;3.70;;;16.90;87.40;;;;;;2610531;54;20041;-76
2021/08/15 03:26:06;;;;;;;10.45;4.40;;;16.90;87.50;;;;;;2610726;54;20041;-76
2021/08/15 03:28:32;;;;;;;6.40;3.47;;;17.00;87.40;;;;;;2609620;54;20038;-76
2021/08/15 03:30:57;;;;;;;7.35;4.00;;;17.00;87.10;;;;;;2610020;54;20161;-76
2021/08/15 03:33:23;;;;;;;7.25;3.90;;;17.10;86.90;;;;;;2610481;39;20338;-76
2021/08/15 03:35:49;;;;;;;9.23;3.78;;;17.10;86.70;;;;;;2610218;54;20045;-76
2021/08/15 03:38:15;;;;;;;7.72;3.80;;;17.10;86.80;;;;;;2609699;54;20041;-76
2021/08/15 03:40:41;;;;;;;7.18;3.70;;;17.10;86.60;;;;;;2610087;54;20030;-76
2021/08/15 03:43:06;;;;;;;6.50;4.05;;;17.10;86.20;;;;;;2609979;54;20951;-76
2021/08/15 03:45:32;;;;;;;5.70;3.67;;;17.10;85.10;;;;;;2609750;54;20042;-76
2021/08/15 03:47:58;;;;;;;8.23;3.97;;;17.00;84.90;;;;;;2609661;54;20150;-76
2021/08/15 03:50:23;;;;;;;7.68;3.80;;;17.00;84.60;;;;;;2609148;54;20035;-76
2021/08/15 03:52:49;;;;;;;7.43;4.05;;;16.90;84.00;;;;;;2609670;54;20034;-76
2021/08/15 03:55:15;;;;;;;7.80;3.78;;;16.90;84.60;;;;;;2609920;54;20122;-76
2021/08/15 03:57:42;;;;;;;6.47;3.67;;;16.80;85.80;;;;;;2610486;39;20580;-75
2021/08/15 04:00:08;;;;;;;5.07;3.15;;;16.80;86.20;;;;;;2609942;54;20130;-76
2021/08/15 04:02:34;;;;;;;7.05;3.75;;;16.80;86.40;;;;;;2610362;39;20208;-76
2021/08/15 04:05:00;;;;;;;7.00;4.10;;;16.70;86.90;;;;;;2609921;54;20066;-76
2021/08/15 04:07:26;;;;;;;5.20;3.63;;;16.70;87.10;;;;;;2609163;54;20047;-76
2021/08/15 04:09:52;;;;;;;7.60;4.30;;;16.70;86.90;;;;;;2609723;39;20711;-76
2021/08/15 04:12:17;;;;;;;7.03;3.90;;;16.70;86.50;;;;;;2609430;54;20615;-76
2021/08/15 04:14:43;;;;;;;7.80;4.07;;;16.70;86.80;;;;;;2610843;39;20128;-76
2021/08/15 04:17:09;;;;;;;7.22;4.28;;;16.70;86.90;;;;;;2609400;54;20577;-76
2021/08/15 04:19:34;;;;;;;5.70;3.65;;;16.70;87.00;;;;;;2610136;54;20034;-76
2021/08/15 04:22:00;;;;;;;7.00;4.63;;;16.70;87.20;;;;;;2610423;54;20309;-76
2021/08/15 04:24:26;;;;;;;9.65;4.25;;;16.70;87.20;;;;;;2610079;54;20043;-76
2021/08/15 04:26:51;;;;;;;8.35;4.30;;;16.70;87.10;;;;;;2610280;54;20038;-76
2021/08/15 04:29:17;;;;;;;7.13;4.05;;;16.70;87.10;;;;;;2610447;54;20030;-76
2021/08/15 04:31:43;;;;;;;8.93;4.05;;;16.70;87.00;;;;;;2610684;54;20034;-76
2021/08/15 04:34:09;;;;;;;5.03;3.65;;;16.70;87.00;;;;;;2610717;54;20037;-76
2021/08/15 04:36:36;;;;;;;6.63;4.15;;;16.60;87.10;;;;;;2610693;54;20106;-76
2021/08/15 04:39:03;;;;;;;6.82;4.03;;;16.60;87.40;;;;;;2610278;54;20038;-77
2021/08/15 04:41:28;;;;;;;8.68;4.65;;;16.60;88.10;;;;;;2610215;54;20034;-76
2021/08/15 04:43:54;;;;;;;8.82;5.32;;;16.70;89.00;;;;;;2610389;54;20038;-76
2021/08/15 04:46:20;;;;;;;5.97;4.22;;;16.70;89.80;;;;;;2609714;54;20578;-75
2021/08/15 04:48:45;;;;;;;7.93;5.03;;;16.70;90.30;;;;;;2610344;54;20034;-76
2021/08/15 04:51:11;;;;;;;10.13;4.50;;;16.80;90.60;;;;;;2609975;54;20042;-76
2021/08/15 04:53:36;;;;;;;6.15;4.28;;;16.90;90.70;;;;;;2609550;54;20043;-76
2021/08/15 04:56:03;;;;;;;11.23;4.53;;;16.90;90.70;;;;;;2610207;54;20099;-76
2021/08/15 04:58:29;;;;;;;6.72;4.53;;;16.90;90.60;;;;;;2609971;54;20082;-76
2021/08/15 05:00:55;;;;;;;6.97;4.30;;;17.00;90.40;;;;;;2610265;54;20038;-76
2021/08/15 05:03:21;;;;;;;6.25;4.63;;;17.10;90.40;;;;;;2610139;54;20030;-76
2021/08/15 05:05:46;;;;;;;6.75;4.60;;;17.10;90.30;;;;;;2610050;54;20185;-76
2021/08/15 05:08:12;;;;;;;7.10;4.75;;;17.10;90.30;;;;;;2609930;54;20030;-77
2021/08/15 05:10:42;;;;;;;9.30;4.97;;;17.20;90.30;;;;;;2610123;54;20047;-75
2021/08/15 05:13:08;;;;;;;6.88;4.75;;;17.20;90.40;;;;;;2610172;54;20039;-76
2021/08/15 05:15:33;;;;;;;9.55;5.10;;;17.30;90.40;;;;;;2610355;54;20062;-76
2021/08/15 05:17:59;;;;;;;7.03;4.82;;;17.30;90.30;;;;;;2610018;54;20121;-76
2021/08/15 05:20:25;;;;;;;8.57;4.70;;;17.40;90.20;;;;;;2609795;54;20046;-77
2021/08/15 05:22:51;;;;;;;9.63;4.88;;;17.40;90.20;;;;;;2610081;54;20034;-76
2021/08/15 05:25:16;;;;;;;8.65;4.80;;;17.50;90.20;;;;;;2610151;54;20041;-76
2021/08/15 05:27:42;;;;;;;7.95;4.80;;;17.50;90.20;;;;;;2610209;54;20087;-76
2021/08/15 05:30:08;;;;;;;7.50;4.55;;;17.50;90.00;;;;;;2609284;54;20065;-76
2021/08/15 05:32:34;;;;;;;8.73;5.05;;;17.60;90.10;;;;;;2609979;54;20059;-76
2021/08/15 05:35:00;;;;;;;8.88;4.85;;;17.70;89.90;;;;;;2610071;54;20038;-77
2021/08/15 05:37:25;;;;;;;7.38;4.63;;;17.70;89.80;;;;;;2609858;54;20046;-76
2021/08/15 05:39:51;;;;;;;7.28;4.72;;;17.80;90.00;;;;;;2609527;47;20154;-76
2021/08/15 05:42:17;;;;;;;7.43;4.88;;;17.80;89.80;;;;;;2609430;54;20038;-76
2021/08/15 05:44:43;;;;;;;7.22;4.65;;;17.90;89.40;;;;;;2610209;54;20038;-76
2021/08/15 05:47:09;;;;;;;8.65;4.70;;;18.00;89.20;;;;;;2610001;54;20117;-77
2021/08/15 05:49:35;;;;;;;8.55;5.30;;;18.00;88.50;;;;;;2610477;54;20150;-76
2021/08/15 05:52:01;;;;;;;8.68;4.60;;;18.20;88.60;;;;;;2609940;54;20042;-76
2021/08/15 05:54:26;;;;;;;9.07;4.72;;;18.30;88.20;;;;;;2609534;54;20034;-76
2021/08/15 05:56:52;;;;;;;10.35;4.70;;;18.40;87.20;;;;;;2609979;54;20045;-76
2021/08/15 05:59:18;;;;;;;7.07;4.30;;;18.60;86.20;;;;;;2610021;54;20041;-76
2021/08/15 06:01:44;;;;;;;10.75;4.88;;;18.70;85.60;;;;;;2610278;54;20567;-76
2021/08/15 06:04:09;;;;;;;10.35;4.82;;;18.80;84.80;;;;;;2610110;54;20030;-76
2021/08/15 06:06:35;;;;;;;8.90;4.57;;;18.90;84.10;;;;;;2610403;54;20034;-76
2021/08/15 06:09:00;;;;;;;9.57;4.53;;;19.00;83.60;;;;;;2609427;54;21037;-76
2021/08/15 06:11:26;;;;;;;8.25;4.32;;;19.10;83.10;;;;;;2610744;54;20577;-76
2021/08/15 06:13:53;;;;;;;8.10;4.78;;;19.20;83.40;;;;;;2610282;54;20035;-75
2021/08/15 06:16:19;;;;;;;8.05;4.65;;;19.30;82.20;;;;;;2609504;47;20149;-76
2021/08/15 06:18:45;;;;;;;6.18;3.80;;;19.40;81.80;;;;;;2610005;54;20057;-76
2021/08/15 06:21:11;;;;;;;10.93;4.13;;;19.50;81.90;;;;;;2609910;54;20038;-76
2021/08/15 06:23:36;;;;;;;9.07;4.30;;;19.50;81.50;;;;;;2609657;50;20045;-77
2021/08/15 06:26:02;;;;;;;15.43;4.15;;;19.70;81.50;;;;;;2609941;54;20034;-77
2021/08/15 06:28:28;;;;;;;11.95;4.38;;;19.80;80.00;;;;;;2610194;54;20042;-76
2021/08/15 06:30:53;;;;;;;11.95;4.30;;;19.90;78.90;;;;;;2610715;54;20054;-76
2021/08/15 06:33:19;;;;;;;9.05;4.40;;;20.00;78.90;;;;;;2609605;54;20049;-76
2021/08/15 06:35:45;;;;;;;8.60;3.78;;;20.10;79.00;;;;;;2610352;54;20065;-75
2021/08/15 06:38:10;;;;;;;13.55;4.13;;;20.20;78.50;;;;;;2609361;54;20038;-76
2021/08/15 06:40:36;;;;;;;9.85;4.05;;;20.30;77.30;;;;;;2610051;54;20125;-76
2021/08/15 06:43:09;;;;;;;10.05;4.15;;;20.40;77.30;;;;;;2610542;54;20041;-76
2021/08/15 06:45:36;;;;;;;8.98;4.18;;;20.50;76.50;;;;;;2610538;54;20094;-76
2021/08/15 06:48:02;;;;;;;11.80;4.55;;;20.50;76.60;;;;;;2610018;39;20465;-76
2021/08/15 06:50:28;;;;;;;7.93;3.70;;;20.60;76.90;;;;;;2610628;54;20050;-76
2021/08/15 06:52:54;;;;;;;8.25;3.80;;;20.70;76.20;;;;;;2609677;51;20056;-77
2021/08/15 06:55:20;;;;;;;9.18;3.63;;;20.70;76.00;;;;;;2609454;54;20088;-76
2021/08/15 06:57:46;;;;;;;10.40;3.75;;;20.90;75.70;;;;;;2609926;54;20037;-76
2021/08/15 07:00:12;;;;;;;12.20;3.90;;;20.90;75.10;;;;;;2609489;54;20122;-76
2021/08/15 07:02:40;;;;;;;8.40;3.63;;;21.00;75.20;;;;;;2610115;54;20038;-77
2021/08/15 07:05:10;;;;;;;13.48;4.25;;;21.00;75.30;;;;;;2609430;54;20035;-76
2021/08/15 07:07:36;;;;;;;12.05;3.85;;;21.10;74.00;;;;;;2609496;54;20138;-77
2021/08/15 07:10:03;;;;;;;11.20;3.90;;;21.20;73.70;;;;;;2608660;47;20034;-77
2021/08/15 07:12:29;;;;;;;10.18;4.53;;;21.40;73.60;;;;;;2609469;54;20049;-77
2021/08/15 07:14:54;;;;;;;7.30;3.75;;;21.50;73.20;;;;;;2609619;54;20038;-75
2021/08/15 07:17:20;;;;;;;12.63;4.35;;;21.50;73.40;;;;;;2608619;49;20063;-75
2021/08/15 07:19:46;;;;;;;10.05;4.25;;;21.60;72.80;;;;;;2610354;39;20431;-75
2021/08/15 07:22:11;;;;;;;11.35;4.30;;;21.60;72.20;;;;;;2601061;51;20989;-75
2021/08/15 07:24:37;;;;;;;8.77;3.95;;;21.70;72.90;;;;;;2608853;54;20050;-75
2021/08/15 07:27:03;;;;;;;15.20;3.72;;;21.70;71.80;;;;;;2608364;54;20038;-75
2021/08/15 07:29:29;;;;;;;14.48;5.03;;;21.70;71.70;;;;;;2608993;54;20030;-75
2021/08/15 07:31:54;;;;;;;11.80;3.83;;;21.70;71.80;;;;;;2609429;54;20179;-76
2021/08/15 07:34:20;;;;;;;10.13;4.00;;;21.80;71.20;;;;;;2609330;54;20131;-75
2021/08/15 07:36:46;;;;;;;10.23;4.13;;;21.80;70.50;;;;;;2609573;54;20561;-75
2021/08/15 07:39:13;;;;;;;14.40;4.53;;;21.90;70.00;;;;;;2609244;54;20117;-77
2021/08/15 07:41:39;;;;;;;10.25;4.20;;;22.00;71.00;;;;;;2609637;54;20030;-79
2021/08/15 07:44:05;;;;;;;9.75;4.03;;;22.00;70.00;;;;;;2609992;54;20074;-77
2021/08/15 07:46:31;;;;;;;14.73;3.83;;;22.20;69.40;;;;;;2609092;47;20620;-78
2021/08/15 07:48:58;;;;;;;12.35;3.95;;;22.30;68.30;;;;;;2608963;47;20038;-79
2021/08/15 07:51:24;;;;;;;9.25;4.30;;;22.30;68.10;;;;;;2610071;54;20082;-77
2021/08/15 07:53:51;;;;;;;7.70;3.75;;;22.40;65.80;;;;;;2610535;54;20030;-76
2021/08/15 07:56:16;;;;;;;11.65;4.13;;;22.50;66.30;;;;;;2610136;54;20040;-76
2021/08/15 07:58:42;;;;;;;8.80;3.60;;;22.60;66.90;;;;;;2609031;54;20041;-76
2021/08/15 08:01:08;;;;;;;8.13;3.95;;;22.60;67.00;;;;;;2607464;54;20042;-75
2021/08/15 08:03:34;;;;;;;8.00;4.25;;;22.60;65.90;;;;;;2610684;54;20620;-76
2021/08/15 08:06:00;;;;;;;11.20;4.45;;;22.60;67.10;;;;;;2609304;54;20046;-75
2021/08/15 08:08:26;;;;;;;7.93;3.65;;;22.60;65.80;;;;;;2609967;54;20042;-76
2021/08/15 08:10:54;;;;;;;13.00;4.00;;;22.70;63.50;;;;;;2610436;54;20118;-75
2021/08/15 08:13:21;;;;;;;9.55;3.65;;;22.70;63.30;;;;;;2610032;54;20035;-76
2021/08/15 08:15:47;;;;;;;8.32;3.80;;;22.80;64.00;;;;;;2609944;54;20149;-76
2021/08/15 08:18:13;;;;;;;9.93;3.75;;;22.70;64.20;;;;;;2610269;39;20593;-76
2021/08/15 08:20:40;;;;;;;7.50;3.30;;;22.70;64.50;;;;;;2610191;54;20065;-76
2021/08/15 08:23:11;;;;;;;7.82;3.35;;;22.80;65.10;;;;;;2609387;54;20112;-79
2021/08/15 08:25:37;;;;;;;10.15;3.53;;;22.90;62.80;;;;;;2609109;47;20118;-76
2021/08/15 08:28:04;;;;;;;9.02;3.92;;;23.00;60.80;;;;;;2608991;54;20069;-76
2021/08/15 08:30:30;;;;;;;8.20;3.53;;;23.00;61.90;;;;;;2609537;39;20359;-77
2021/08/15 08:32:55;;;;;;;7.60;3.13;;;23.00;61.90;;;;;;2610136;54;20038;-77
2021/08/15 08:35:22;;;;;;;7.13;3.10;;;23.10;58.50;;;;;;2610078;54;20046;-76
2021/08/15 08:37:48;;;;;;;7.43;3.05;;;23.10;57.20;;;;;;2610064;39;20117;-77
2021/08/15 08:40:18;;;;;;;7.35;3.03;;;23.20;56.70;;;;;;2609832;54;20035;-74
2021/08/15 08:42:45;;;;;;;9.65;2.90;;;23.20;55.50;;;;;;2609859;54;20034;-80
2021/08/15 08:45:17;;;;;;;6.00;2.72;;;23.30;55.60;;;;;;2609752;54;20049;-75
2021/08/15 08:47:43;;;;;;;3.97;2.50;;;23.30;56.10;;;;;;2609786;54;20082;-73
2021/08/15 08:50:09;;;;;;;9.80;3.55;;;23.30;56.50;;;;;;2610018;54;20046;-71
2021/08/15 08:52:35;;;;;;;6.57;3.30;;;23.40;56.20;;;;;;2610128;54;20076;-73
2021/08/15 08:55:03;;;;;;;6.30;3.25;;;23.50;56.10;;;;;;2610703;54;20089;-73
2021/08/15 08:57:30;;;;;;;7.53;3.30;;;23.60;55.20;;;;;;2610466;54;20035;-73
2021/08/15 08:59:55;;;;;;;7.13;3.20;;;23.70;56.00;;;;;;2610283;54;20033;-73
2021/08/15 09:02:21;;;;;;;12.98;4.28;;;23.70;55.90;;;;;;2610217;54;20046;-73
2021/08/15 09:04:47;;;;;;;7.47;3.42;;;23.80;57.10;;;;;;2609960;39;20545;-73
2021/08/15 09:07:15;;;;;;;9.20;3.63;;;23.80;57.50;;;;;;2609448;39;20789;-73
2021/08/15 09:09:51;;;;;;;8.60;3.80;;;23.80;57.40;;;;;;2610269;54;20139;-73
2021/08/15 09:12:17;;;;;;;8.75;3.60;;;23.90;57.50;;;;;;2610512;54;20042;-73
2021/08/15 09:14:44;;;;;;;12.10;4.38;;;23.90;58.10;;;;;;2610047;54;20040;-73
2021/08/15 09:17:10;;;;;;;8.85;4.00;;;24.00;57.90;;;;;;2609613;54;20091;-73
2021/08/15 09:19:41;;;;;;;9.32;4.18;;;24.20;57.90;;;;;;2610467;54;20034;-73
2021/08/15 09:22:19;;;;;;;8.85;4.43;;;24.30;57.50;;;;;;2609338;54;20077;-83
2021/08/15 09:24:49;;;;;;;9.95;4.60;;;24.40;56.40;;;;;;2610206;52;20034;-70
2021/08/15 09:27:21;;;;;;;8.15;3.92;;;24.40;56.80;;;;;;2610165;54;20049;-70
2021/08/15 09:30:09;;;;;;;12.13;4.07;;;24.40;56.50;;;;;;2610020;54;20034;-71
2021/08/15 09:32:55;;;;;;;7.28;3.85;;;24.30;56.40;;;;;;2610086;39;20842;-70
2021/08/15 09:35:30;;;;;;;8.60;4.18;;;24.30;57.90;;;;;;2608867;54;20182;-70
2021/08/15 09:38:01;;;;;;;8.95;4.30;;;24.40;56.50;;;;;;2609535;47;20038;-70
2021/08/15 09:40:26;;;;;;;8.55;4.10;;;24.40;56.50;;;;;;2609129;54;20038;-70
2021/08/15 09:42:53;;;;;;;6.45;3.63;;;24.40;57.40;;;;;;2609745;54;20069;-71
2021/08/15 09:45:37;;;;;;;10.02;4.47;;;24.40;55.90;;;;;;2609432;54;20030;-71
2021/08/15 09:48:26;;;;;;;14.15;4.32;;;24.40;56.20;;;;;;2609958;54;20030;-71
2021/08/15 09:51:11;;;;;;;6.90;3.95;;;24.40;57.20;;;;;;2610385;54;20043;-70
2021/08/15 09:53:42;;;;;;;9.93;3.92;;;24.40;57.80;;;;;;2609272;54;20085;-74
2021/08/15 09:56:09;;;;;;;10.57;4.10;;;24.40;56.70;;;;;;2610428;54;20042;-70
2021/08/15 09:58:35;;;;;;;9.90;4.95;;;24.50;56.10;;;;;;2607561;54;20034;-69
2021/08/15 10:01:04;;;;;;;11.80;4.47;;;24.60;56.50;;;;;;2608553;54;20059;-70
2021/08/15 10:03:30;;;;;;;8.25;3.95;;;24.60;56.30;;;;;;2607512;54;20039;-71
2021/08/15 10:05:57;;;;;;;9.18;4.30;;;24.60;56.00;;;;;;2606911;47;20621;-71
2021/08/15 10:08:23;;;;;;;9.25;4.40;;;24.60;57.10;;;;;;2607986;39;20817;-70
2021/08/15 10:10:49;;;;;;;9.68;4.25;;;24.70;57.80;;;;;;2608163;54;20054;-70
2021/08/15 10:13:17;;;;;;;9.68;4.18;;;24.80;57.60;;;;;;2607389;47;20022;-70
2021/08/15 10:16:00;;;;;;;11.15;4.50;;;24.90;55.50;;;;;;2607573;54;20067;-70
2021/08/15 10:18:27;;;;;;;8.35;4.43;;;25.00;56.10;;;;;;2609904;54;20030;-69
2021/08/15 10:21:07;;;;;;;10.35;4.07;;;25.00;56.40;;;;;;2609676;54;20071;-71
2021/08/15 10:23:39;;;;;;;8.27;4.32;;;25.10;55.50;;;;;;2609674;47;20125;-69
2021/08/15 10:26:25;;;;;;;9.02;4.13;;;25.20;56.40;;;;;;2610144;54;20046;-70
2021/08/15 10:28:51;;;;;;;10.23;4.20;;;25.30;55.30;;;;;;2609128;54;20168;-69
2021/08/15 10:31:18;;;;;;;10.98;4.68;;;25.30;54.90;;;;;;2609304;54;20042;-70
2021/08/15 10:33:54;;;;;;;7.85;4.03;;;25.30;54.70;;;;;;2610365;54;20038;-71
2021/08/15 10:36:26;;;;;;;9.85;4.28;;;25.30;55.10;;;;;;2609668;54;20086;-71
2021/08/15 10:38:54;;;;;;;8.60;3.90;;;25.30;54.00;;;;;;2610199;54;20030;-70
2021/08/15 10:41:49;;;;;;;13.20;4.43;;;25.20;55.00;;;;;;2610471;54;20039;-70
2021/08/15 10:44:15;;;;;;;6.95;4.15;;;25.20;56.20;;;;;;2610206;54;20046;-70
2021/08/15 10:47:19;;;;;;;11.95;4.80;;;25.40;54.90;;;;;;2610212;54;20054;-70
2021/08/15 10:49:53;;;;;;;8.50;3.92;;;25.40;54.30;;;;;;2608482;54;20071;-71
2021/08/15 10:52:37;;;;;;;11.35;4.55;;;25.50;54.80;;;;;;2608661;54;20031;-70
2021/08/15 10:55:07;;;;;;;10.32;4.50;;;25.40;54.00;;;;;;2610078;54;20042;-71
2021/08/15 10:57:39;;;;;;;12.77;4.40;;;25.40;54.10;;;;;;2609261;54;20056;-71
2021/08/15 11:00:29;;;;;;;7.70;4.10;;;25.40;54.40;;;;;;2610892;54;20034;-71
2021/08/15 11:03:10;;;;;;;6.22;3.83;;;25.40;53.50;;;;;;2610904;54;20043;-73
2021/08/15 11:05:39;;;;;;;7.13;4.10;;;25.30;54.10;;;;;;2610445;54;20041;-69
2021/08/15 11:08:25;;;;;;;8.30;4.20;;;25.40;54.70;;;;;;2609801;54;20041;-71
2021/08/15 11:11:04;;;;;;;9.75;4.75;;;25.40;55.40;;;;;;2609388;47;20210;-72
2021/08/15 11:13:31;;;;;;;10.73;4.45;;;25.40;55.30;;;;;;2608904;39;20758;-72
2021/08/15 11:16:24;;;;;;;12.00;4.38;;;25.50;55.20;;;;;;2609005;54;20041;-71
2021/08/15 11:19:09;;;;;;;11.88;4.32;;;25.50;54.10;;;;;;2608875;54;20037;-71
2021/08/15 11:22:10;;;;;;;10.05;4.57;;;25.60;54.70;;;;;;2607920;54;20038;-72
2021/08/15 11:24:37;;;;;;;8.63;3.80;;;25.70;53.40;;;;;;2609052;54;20079;-71
2021/08/15 11:27:05;;;;;;;11.32;4.85;;;25.70;55.90;;;;;;2609014;47;20878;-71
2021/08/15 11:29:32;;;;;;;7.65;4.13;;;25.80;52.30;;;;;;2610469;54;20059;-71
2021/08/15 11:31:59;;;;;;;7.88;3.90;;;25.80;54.40;;;;;;2610209;54;20038;-72
2021/08/15 11:34:25;;;;;;;8.05;4.35;;;25.80;53.70;;;;;;2609828;54;20100;-71
2021/08/15 11:37:01;;;;;;;7.85;4.53;;;25.90;52.80;;;;;;2610498;54;20042;-70
2021/08/15 11:39:38;;;;;;;10.48;4.80;;;25.80;54.40;;;;;;2610121;54;20124;-69
2021/08/15 11:42:06;;;;;;;8.27;4.05;;;25.80;54.50;;;;;;2610617;54;20589;-68
2021/08/15 11:44:59;;;;;;;11.02;4.40;;;26.00;52.60;;;;;;2610889;54;20081;-73
2021/08/15 11:47:33;;;;;;;8.80;4.38;;;26.10;52.80;;;;;;2609872;39;22005;-70
2021/08/15 11:50:01;;;;;;;8.70;4.15;;;26.10;53.20;;;;;;2609845;54;20069;-71
2021/08/15 11:52:35;;;;;;;8.77;4.30;;;26.20;53.80;;;;;;2610269;54;20161;-71
2021/08/15 11:55:03;;;;;;;9.02;4.90;;;26.30;53.40;;;;;;2610527;54;20149;-70
2021/08/15 11:57:50;;;;;;;10.95;4.38;;;26.40;52.00;;;;;;2610033;54;20040;-71
2021/08/15 12:00:16;;;;;;;8.73;4.55;;;26.40;52.30;;;;;;2609619;54;20045;-70
2021/08/15 12:03:00;;;;;;;9.70;4.40;;;26.40;52.40;;;;;;2610459;54;20842;-70
2021/08/15 12:05:26;;;;;;;9.30;4.00;;;26.30;52.70;;;;;;2610112;54;20046;-71
2021/08/15 12:07:51;;;;;;;7.78;4.35;;;26.30;51.90;;;;;;2610058;54;20180;-72
2021/08/15 12:10:35;;;;;;;10.02;4.68;;;26.40;52.30;;;;;;2610077;54;20038;-71
2021/08/15 12:13:34;;;;;;;9.55;4.28;;;26.40;51.90;;;;;;2610708;54;20073;-71
2021/08/15 12:16:00;;;;;;;10.85;4.15;;;26.50;52.20;;;;;;2610653;54;20041;-71
2021/08/15 12:18:30;;;;;;;9.10;4.43;;;26.70;51.10;;;;;;2609437;54;20061;-71
2021/08/15 12:20:58;;;;;;;7.88;4.72;;;26.80;51.60;;;;;;2610657;54;20042;-72
2021/08/15 12:23:24;;;;;;;7.53;3.97;;;27.00;51.20;;;;;;2610901;54;20082;-71
2021/08/15 12:26:05;;;;;;;8.07;3.92;;;27.10;49.40;;;;;;2609565;54;20030;-71
2021/08/15 12:28:34;;;;;;;9.23;4.65;;;27.10;49.30;;;;;;2610666;54;20065;-71
2021/08/15 12:31:16;;;;;;;9.05;3.95;;;27.10;51.10;;;;;;2610243;54;20041;-72
2021/08/15 12:33:42;;;;;;;10.25;4.75;;;27.30;49.40;;;;;;2609607;47;20030;-71
2021/08/15 12:36:22;;;;;;;7.65;3.88;;;27.30;50.00;;;;;;2610633;54;20102;-71
2021/08/15 12:38:49;;;;;;;7.85;4.30;;;27.20;49.70;;;;;;2610362;54;20932;-71
2021/08/15 12:41:27;;;;;;;5.85;4.10;;;27.20;48.70;;;;;;2610250;54;20074;-71
2021/08/15 12:44:10;;;;;;;7.05;3.80;;;27.10;50.90;;;;;;2609871;54;20038;-71
2021/08/15 12:46:36;;;;;;;8.18;4.18;;;27.10;48.50;;;;;;2609470;54;20059;-70
2021/08/15 12:49:31;;;;;;;6.72;3.67;;;27.00;50.60;;;;;;2606459;36;20562;-71
2021/08/15 12:52:17;;;;;;;8.48;4.13;;;27.00;51.00;;;;;;2610464;39;20491;-71